sensor_id;sensor_type;location;lat;lon;timestamp;pressure;altitude;pressure_sealevel;temperature;humidity
32131;BME280;18639;50.716;7.086;2023-10-13T00:01:58;100173.75;;;16.21;100.00
32131;BME280;18639;50.716;7.086;2023-10-13T00:04:28;100217.78;;;16.53;100.00
32131;BME280;18639;50.716;7.086;2023-10-13T00:06:55;100211.19;;;16.49;100.00
32131;BME280;18639;50.716;7.086;2023-10-13T00:09:24;100212.03;;;16.50;100.00
32131;BME280;18639;50.716;7.086;2023-10-13T00:11:58;100202.13;;;16.43;100.00
32131;BME280;18639;50.716;7.086;2023-10-13T00:14:23;100190.06;;;16.42;100.00
32131;BME280;18639;50.716;7.086;2023-10-13T00:16:59;100202.94;;;16.54;100.00
32131;BME280;18639;50.716;7.086;2023-10-13T00:19:33;100193.88;;;16.58;100.00
32131;BME280;18639;50.716;7.086;2023-10-13T00:22:13;100190.84;;;16.53;100.00
32131;BME280;18639;50.716;7.086;2023-10-13T00:24:42;100188.13;;;16.45;100.00
32131;BME280;18639;50.716;7.086;2023-10-13T00:27:10;100191.38;;;16.56;100.00
32131;BME280;18639;50.716;7.086;2023-10-13T00:29:50;100184.81;;;16.52;100.00
32131;BME280;18639;50.716;7.086;2023-10-13T00:32:16;100187.00;;;16.57;100.00
32131;BME280;18639;50.716;7.086;2023-10-13T00:34:45;100170.94;;;16.52;100.00
32131;BME280;18639;50.716;7.086;2023-10-13T00:37:10;100173.00;;;16.58;100.00
32131;BME280;18639;50.716;7.086;2023-10-13T00:39:41;100178.22;;;16.58;100.00
32131;BME280;18639;50.716;7.086;2023-10-13T00:42:14;100191.81;;;16.71;100.00
32131;BME280;18639;50.716;7.086;2023-10-13T00:44:50;100175.75;;;16.66;100.00
32131;BME280;18639;50.716;7.086;2023-10-13T00:47:20;100171.50;;;16.65;100.00
32131;BME280;18639;50.716;7.086;2023-10-13T00:50:14;100181.13;;;16.64;100.00
32131;BME280;18639;50.716;7.086;2023-10-13T00:52:40;100149.41;;;16.50;100.00
32131;BME280;18639;50.716;7.086;2023-10-13T00:55:07;100159.84;;;16.59;100.00
32131;BME280;18639;50.716;7.086;2023-10-13T00:57:34;100153.25;;;16.55;100.00
32131;BME280;18639;50.716;7.086;2023-10-13T01:00:00;100119.09;;;16.29;100.00
32131;BME280;18639;50.716;7.086;2023-10-13T01:02:37;100153.38;;;16.54;100.00
32131;BME280;18639;50.716;7.086;2023-10-13T01:05:07;100157.09;;;16.61;100.00
32131;BME280;18639;50.716;7.086;2023-10-13T01:07:35;100117.31;;;16.39;100.00
32131;BME280;18639;50.716;7.086;2023-10-13T01:10:02;100116.31;;;16.40;100.00
32131;BME280;18639;50.716;7.086;2023-10-13T01:12:30;100138.41;;;16.56;100.00
32131;BME280;18639;50.716;7.086;2023-10-13T01:14:57;100111.38;;;16.47;100.00
32131;BME280;18639;50.716;7.086;2023-10-13T01:17:24;100121.38;;;16.52;100.00
32131;BME280;18639;50.716;7.086;2023-10-13T01:19:57;100133.75;;;16.59;100.00
32131;BME280;18639;50.716;7.086;2023-10-13T01:22:24;100123.41;;;16.58;100.00
32131;BME280;18639;50.716;7.086;2023-10-13T01:24:49;100102.06;;;16.45;100.00
32131;BME280;18639;50.716;7.086;2023-10-13T01:27:14;100114.53;;;16.51;100.00
32131;BME280;18639;50.716;7.086;2023-10-13T01:29:51;100116.56;;;16.57;100.00
32131;BME280;18639;50.716;7.086;2023-10-13T01:32:23;100109.59;;;16.48;100.00
32131;BME280;18639;50.716;7.086;2023-10-13T01:34:49;100128.41;;;16.61;100.00
32131;BME280;18639;50.716;7.086;2023-10-13T01:37:15;100116.84;;;16.63;100.00
32131;BME280;18639;50.716;7.086;2023-10-13T01:39:41;100112.06;;;16.59;100.00
32131;BME280;18639;50.716;7.086;2023-10-13T01:42:07;100096.81;;;16.54;100.00
32131;BME280;18639;50.716;7.086;2023-10-13T01:44:32;100083.81;;;16.45;100.00
32131;BME280;18639;50.716;7.086;2023-10-13T01:46:58;100101.19;;;16.63;100.00
32131;BME280;18639;50.716;7.086;2023-10-13T01:49:24;100087.31;;;16.63;100.00
32131;BME280;18639;50.716;7.086;2023-10-13T01:51:50;100111.75;;;16.71;100.00
32131;BME280;18639;50.716;7.086;2023-10-13T01:54:15;100089.63;;;16.56;100.00
32131;BME280;18639;50.716;7.086;2023-10-13T01:56:41;100078.53;;;16.54;100.00
32131;BME280;18639;50.716;7.086;2023-10-13T01:59:12;100097.19;;;16.69;100.00
32131;BME280;18639;50.716;7.086;2023-10-13T02:01:38;100097.19;;;16.69;100.00
32131;BME280;18639;50.716;7.086;2023-10-13T02:04:05;100089.25;;;16.61;100.00
32131;BME280;18639;50.716;7.086;2023-10-13T02:06:32;100089.50;;;16.67;100.00
32131;BME280;18639;50.716;7.086;2023-10-13T02:09:06;100086.47;;;16.72;100.00
32131;BME280;18639;50.716;7.086;2023-10-13T02:11:41;100066.97;;;16.57;100.00
32131;BME280;18639;50.716;7.086;2023-10-13T02:14:07;100070.00;;;16.62;100.00
32131;BME280;18639;50.716;7.086;2023-10-13T02:16:32;100073.84;;;16.67;100.00
32131;BME280;18639;50.716;7.086;2023-10-13T02:18:58;100079.59;;;16.71;100.00
32131;BME280;18639;50.716;7.086;2023-10-13T02:21:32;100062.59;;;16.57;100.00
32131;BME280;18639;50.716;7.086;2023-10-13T02:23:58;100052.97;;;16.58;100.00
32131;BME280;18639;50.716;7.086;2023-10-13T02:26:30;100050.13;;;16.61;100.00
32131;BME280;18639;50.716;7.086;2023-10-13T02:28:59;100059.31;;;16.65;100.00
32131;BME280;18639;50.716;7.086;2023-10-13T02:31:28;100042.84;;;16.55;100.00
32131;BME280;18639;50.716;7.086;2023-10-13T02:33:53;100041.88;;;16.56;100.00
32131;BME280;18639;50.716;7.086;2023-10-13T02:36:19;100030.50;;;16.47;100.00
32131;BME280;18639;50.716;7.086;2023-10-13T02:38:49;100048.19;;;16.63;100.00
32131;BME280;18639;50.716;7.086;2023-10-13T02:41:19;100041.06;;;16.55;100.00
32131;BME280;18639;50.716;7.086;2023-10-13T02:43:53;100035.44;;;16.60;100.00
32131;BME280;18639;50.716;7.086;2023-10-13T02:46:20;100031.28;;;16.57;100.00
32131;BME280;18639;50.716;7.086;2023-10-13T02:48:47;100039.25;;;16.65;100.00
32131;BME280;18639;50.716;7.086;2023-10-13T02:51:19;100018.00;;;16.60;100.00
32131;BME280;18639;50.716;7.086;2023-10-13T02:53:47;100026.88;;;16.67;100.00
32131;BME280;18639;50.716;7.086;2023-10-13T02:56:16;100027.41;;;16.71;100.00
32131;BME280;18639;50.716;7.086;2023-10-13T02:58:49;100020.81;;;16.67;100.00
32131;BME280;18639;50.716;7.086;2023-10-13T03:01:34;100018.63;;;16.72;100.00
32131;BME280;18639;50.716;7.086;2023-10-13T03:04:00;100010.50;;;16.75;100.00
32131;BME280;18639;50.716;7.086;2023-10-13T03:06:26;100005.56;;;16.72;100.00
32131;BME280;18639;50.716;7.086;2023-10-13T03:09:03;99997.81;;;16.80;100.00
32131;BME280;18639;50.716;7.086;2023-10-13T03:11:41;100010.44;;;16.84;100.00
32131;BME280;18639;50.716;7.086;2023-10-13T03:14:16;99991.63;;;16.81;100.00
32131;BME280;18639;50.716;7.086;2023-10-13T03:16:54;99992.47;;;16.81;100.00
32131;BME280;18639;50.716;7.086;2023-10-13T03:19:20;99994.09;;;16.82;100.00
32131;BME280;18639;50.716;7.086;2023-10-13T03:21:46;99975.75;;;16.74;100.00
32131;BME280;18639;50.716;7.086;2023-10-13T03:24:21;99987.63;;;16.87;100.00
32131;BME280;18639;50.716;7.086;2023-10-13T03:26:48;99978.13;;;16.86;100.00
32131;BME280;18639;50.716;7.086;2023-10-13T03:29:17;99972.78;;;16.87;100.00
32131;BME280;18639;50.716;7.086;2023-10-13T03:31:46;99963.00;;;16.89;100.00
32131;BME280;18639;50.716;7.086;2023-10-13T03:34:12;99954.88;;;16.92;100.00
32131;BME280;18639;50.716;7.086;2023-10-13T03:36:38;99938.84;;;16.87;100.00
32131;BME280;18639;50.716;7.086;2023-10-13T03:39:22;99951.69;;;16.98;100.00
32131;BME280;18639;50.716;7.086;2023-10-13T03:41:56;99941.84;;;16.92;100.00
32131;BME280;18639;50.716;7.086;2023-10-13T03:44:22;99947.78;;;17.02;100.00
32131;BME280;18639;50.716;7.086;2023-10-13T03:46:48;99946.97;;;17.02;100.00
32131;BME280;18639;50.716;7.086;2023-10-13T03:49:16;99926.81;;;16.94;100.00
32131;BME280;18639;50.716;7.086;2023-10-13T03:51:47;99921.19;;;16.99;100.00
32131;BME280;18639;50.716;7.086;2023-10-13T03:54:13;99928.25;;;17.06;100.00
32131;BME280;18639;50.716;7.086;2023-10-13T03:56:42;99926.59;;;17.05;100.00
32131;BME280;18639;50.716;7.086;2023-10-13T03:59:10;99929.06;;;17.07;100.00
32131;BME280;18639;50.716;7.086;2023-10-13T04:01:43;99927.13;;;17.09;100.00
32131;BME280;18639;50.716;7.086;2023-10-13T04:04:08;99914.34;;;17.06;100.00
32131;BME280;18639;50.716;7.086;2023-10-13T04:06:37;99905.41;;;17.08;100.00
32131;BME280;18639;50.716;7.086;2023-10-13T04:09:18;99903.47;;;17.10;100.00
32131;BME280;18639;50.716;7.086;2023-10-13T04:11:56;99900.19;;;17.08;100.00
32131;BME280;18639;50.716;7.086;2023-10-13T04:14:29;99889.75;;;17.08;100.00
32131;BME280;18639;50.716;7.086;2023-10-13T04:17:13;99907.06;;;17.09;100.00
32131;BME280;18639;50.716;7.086;2023-10-13T04:19:48;99906.91;;;17.11;100.00
32131;BME280;18639;50.716;7.086;2023-10-13T04:25:13;99908.41;;;17.13;100.00
32131;BME280;18639;50.716;7.086;2023-10-13T04:27:57;99901.22;;;17.15;100.00
32131;BME280;18639;50.716;7.086;2023-10-13T04:30:41;99894.38;;;17.14;100.00
32131;BME280;18639;50.716;7.086;2023-10-13T04:33:28;99903.00;;;17.15;100.00
32131;BME280;18639;50.716;7.086;2023-10-13T04:36:06;99888.00;;;17.17;100.00
32131;BME280;18639;50.716;7.086;2023-10-13T04:38:52;99888.53;;;17.20;100.00
32131;BME280;18639;50.716;7.086;2023-10-13T04:41:39;99885.63;;;17.23;100.00
32131;BME280;18639;50.716;7.086;2023-10-13T04:44:12;99879.56;;;17.23;100.00
32131;BME280;18639;50.716;7.086;2023-10-13T04:46:57;99883.84;;;17.24;100.00
32131;BME280;18639;50.716;7.086;2023-10-13T04:49:30;99879.44;;;17.24;100.00
32131;BME280;18639;50.716;7.086;2023-10-13T04:52:08;99872.06;;;17.20;100.00
32131;BME280;18639;50.716;7.086;2023-10-13T04:54:42;99880.75;;;17.29;100.00
32131;BME280;18639;50.716;7.086;2023-10-13T04:57:16;99864.88;;;17.22;100.00
32131;BME280;18639;50.716;7.086;2023-10-13T05:00:04;99865.28;;;17.35;100.00
32131;BME280;18639;50.716;7.086;2023-10-13T05:02:55;99867.72;;;17.37;100.00
32131;BME280;18639;50.716;7.086;2023-10-13T05:05:42;99865.28;;;17.35;100.00
32131;BME280;18639;50.716;7.086;2023-10-13T05:08:30;99854.31;;;17.32;100.00
32131;BME280;18639;50.716;7.086;2023-10-13T05:11:14;99874.75;;;17.36;100.00
32131;BME280;18639;50.716;7.086;2023-10-13T05:13:58;99872.66;;;17.40;100.00
32131;BME280;18639;50.716;7.086;2023-10-13T05:16:42;99874.31;;;17.41;100.00
32131;BME280;18639;50.716;7.086;2023-10-13T05:19:26;99867.44;;;17.40;100.00
32131;BME280;18639;50.716;7.086;2023-10-13T05:22:10;99856.47;;;17.36;100.00
32131;BME280;18639;50.716;7.086;2023-10-13T05:24:53;99862.22;;;17.40;100.00
32131;BME280;18639;50.716;7.086;2023-10-13T05:27:37;99863.88;;;17.41;100.00
32131;BME280;18639;50.716;7.086;2023-10-13T05:30:22;99859.75;;;17.38;100.00
32131;BME280;18639;50.716;7.086;2023-10-13T05:33:05;99863.19;;;17.39;100.00
32131;BME280;18639;50.716;7.086;2023-10-13T05:35:50;99851.22;;;17.36;100.00
32131;BME280;18639;50.716;7.086;2023-10-13T05:38:34;99851.75;;;17.40;100.00
32131;BME280;18639;50.716;7.086;2023-10-13T05:41:17;99851.44;;;17.43;100.00
32131;BME280;18639;50.716;7.086;2023-10-13T05:44:01;99837.41;;;17.44;100.00
32131;BME280;18639;50.716;7.086;2023-10-13T05:46:45;99839.88;;;17.45;100.00
32131;BME280;18639;50.716;7.086;2023-10-13T05:49:29;99849.78;;;17.59;100.00
32131;BME280;18639;50.716;7.086;2023-10-13T05:52:14;99853.50;;;17.57;100.00
32131;BME280;18639;50.716;7.086;2023-10-13T05:55:15;99853.22;;;17.60;100.00
32131;BME280;18639;50.716;7.086;2023-10-13T05:57:59;99836.41;;;17.62;100.00
32131;BME280;18639;50.716;7.086;2023-10-13T06:00:42;99848.19;;;17.66;100.00
32131;BME280;18639;50.716;7.086;2023-10-13T06:03:26;99858.50;;;17.68;100.00
32131;BME280;18639;50.716;7.086;2023-10-13T06:06:10;99842.28;;;17.64;100.00
32131;BME280;18639;50.716;7.086;2023-10-13T06:08:54;99860.34;;;17.84;100.00
32131;BME280;18639;50.716;7.086;2023-10-13T06:11:38;99854.31;;;17.83;100.00
32131;BME280;18639;50.716;7.086;2023-10-13T06:14:22;99842.81;;;17.76;100.00
32131;BME280;18639;50.716;7.086;2023-10-13T06:17:06;99827.13;;;17.68;100.00
32131;BME280;18639;50.716;7.086;2023-10-13T06:19:50;99846.94;;;17.79;100.00
32131;BME280;18639;50.716;7.086;2023-10-13T06:22:34;99836.63;;;17.77;100.00
32131;BME280;18639;50.716;7.086;2023-10-13T06:25:18;99821.09;;;17.76;100.00
32131;BME280;18639;50.716;7.086;2023-10-13T06:28:07;99843.16;;;17.81;100.00
32131;BME280;18639;50.716;7.086;2023-10-13T06:30:56;99848.13;;;17.92;100.00
32131;BME280;18639;50.716;7.086;2023-10-13T06:33:21;99843.22;;;17.89;100.00
32131;BME280;18639;50.716;7.086;2023-10-13T06:35:54;99841.59;;;17.96;100.00
32131;BME280;18639;50.716;7.086;2023-10-13T06:38:22;99843.22;;;17.97;100.00
32131;BME280;18639;50.716;7.086;2023-10-13T06:40:48;99839.50;;;18.00;100.00
32131;BME280;18639;50.716;7.086;2023-10-13T06:43:15;99842.44;;;18.05;100.00
32131;BME280;18639;50.716;7.086;2023-10-13T06:45:48;99835.25;;;18.07;100.00
32131;BME280;18639;50.716;7.086;2023-10-13T06:48:25;99842.44;;;18.05;100.00
32131;BME280;18639;50.716;7.086;2023-10-13T06:50:51;99822.84;;;18.09;100.00
32131;BME280;18639;50.716;7.086;2023-10-13T06:53:37;99825.78;;;18.14;100.00
32131;BME280;18639;50.716;7.086;2023-10-13T06:56:06;99822.03;;;18.08;100.00
32131;BME280;18639;50.716;7.086;2023-10-13T06:58:31;99829.88;;;18.17;100.00
32131;BME280;18639;50.716;7.086;2023-10-13T07:00:58;99831.69;;;18.16;100.00
32131;BME280;18639;50.716;7.086;2023-10-13T07:03:24;99818.78;;;18.15;100.00
32131;BME280;18639;50.716;7.086;2023-10-13T07:05:50;99815.50;;;18.21;100.00
32131;BME280;18639;50.716;7.086;2023-10-13T07:08:17;99802.59;;;18.19;100.00
32131;BME280;18639;50.716;7.086;2023-10-13T07:10:55;99787.34;;;18.06;100.00
32131;BME280;18639;50.716;7.086;2023-10-13T07:13:44;99801.78;;;18.19;100.00
32131;BME280;18639;50.716;7.086;2023-10-13T07:16:16;99803.41;;;18.20;100.00
32131;BME280;18639;50.716;7.086;2023-10-13T07:18:43;99823.06;;;18.32;100.00
32131;BME280;18639;50.716;7.086;2023-10-13T07:21:15;99807.03;;;18.35;100.00
32131;BME280;18639;50.716;7.086;2023-10-13T07:23:41;99799.66;;;18.38;100.00
32131;BME280;18639;50.716;7.086;2023-10-13T07:26:14;99802.78;;;18.42;100.00
32131;BME280;18639;50.716;7.086;2023-10-13T07:28:40;99796.22;;;18.38;100.00
32131;BME280;18639;50.716;7.086;2023-10-13T07:31:14;99790.69;;;18.41;100.00
32131;BME280;18639;50.716;7.086;2023-10-13T07:33:40;99792.00;;;18.53;100.00
32131;BME280;18639;50.716;7.086;2023-10-13T07:36:08;99788.56;;;18.52;100.00
32131;BME280;18639;50.716;7.086;2023-10-13T07:38:45;99794.13;;;18.66;100.00
32131;BME280;18639;50.716;7.086;2023-10-13T07:41:17;99774.50;;;18.70;100.00
32131;BME280;18639;50.716;7.086;2023-10-13T07:43:43;99782.03;;;18.73;100.00
32131;BME280;18639;50.716;7.086;2023-10-13T07:46:10;99785.47;;;18.73;100.00
32131;BME280;18639;50.716;7.086;2023-10-13T07:48:37;99785.31;;;18.75;100.00
32131;BME280;18639;50.716;7.086;2023-10-13T07:51:09;99770.72;;;18.80;100.00
32131;BME280;18639;50.716;7.086;2023-10-13T07:53:47;99757.00;;;18.70;100.00
32131;BME280;18639;50.716;7.086;2023-10-13T07:56:15;99771.72;;;18.79;100.00
32131;BME280;18639;50.716;7.086;2023-10-13T07:58:44;99753.72;;;18.76;100.00
32131;BME280;18639;50.716;7.086;2023-10-13T08:01:18;99753.38;;;18.87;100.00
32131;BME280;18639;50.716;7.086;2023-10-13T08:03:44;99749.13;;;18.86;100.00
32131;BME280;18639;50.716;7.086;2023-10-13T08:06:16;99759.41;;;19.04;100.00
32131;BME280;18639;50.716;7.086;2023-10-13T08:08:42;99748.09;;;19.04;100.00
32131;BME280;18639;50.716;7.086;2023-10-13T08:11:10;99735.88;;;18.96;100.00
32131;BME280;18639;50.716;7.086;2023-10-13T08:13:48;99739.44;;;19.03;100.00
32131;BME280;18639;50.716;7.086;2023-10-13T08:16:19;99745.28;;;19.13;100.00
32131;BME280;18639;50.716;7.086;2023-10-13T08:18:51;99744.78;;;19.18;100.00
32131;BME280;18639;50.716;7.086;2023-10-13T08:21:18;99725.97;;;19.14;100.00
32131;BME280;18639;50.716;7.086;2023-10-13T08:23:51;99735.00;;;19.12;100.00
32131;BME280;18639;50.716;7.086;2023-10-13T08:26:23;99723.81;;;19.18;100.00
32131;BME280;18639;50.716;7.086;2023-10-13T08:29:01;99729.75;;;19.12;100.00
32131;BME280;18639;50.716;7.086;2023-10-13T08:31:47;99729.13;;;19.02;100.00
32131;BME280;18639;50.716;7.086;2023-10-13T08:34:36;99717.03;;;19.01;100.00
32131;BME280;18639;50.716;7.086;2023-10-13T08:37:26;99721.44;;;19.00;100.00
32131;BME280;18639;50.716;7.086;2023-10-13T08:39:52;99705.28;;;18.88;100.00
32131;BME280;18639;50.716;7.086;2023-10-13T08:42:44;99717.03;;;18.92;100.00
32131;BME280;18639;50.716;7.086;2023-10-13T08:45:14;99724.22;;;18.99;100.00
32131;BME280;18639;50.716;7.086;2023-10-13T08:48:07;99725.88;;;18.91;100.00
32131;BME280;18639;50.716;7.086;2023-10-13T08:50:43;99704.28;;;18.89;100.00
32131;BME280;18639;50.716;7.086;2023-10-13T08:53:24;99708.19;;;19.02;100.00
32131;BME280;18639;50.716;7.086;2023-10-13T08:56:00;99705.22;;;19.05;100.00
32131;BME280;18639;50.716;7.086;2023-10-13T08:58:31;99704.25;;;19.06;100.00
32131;BME280;18639;50.716;7.086;2023-10-13T09:01:15;99697.06;;;19.00;100.00
32131;BME280;18639;50.716;7.086;2023-10-13T09:04:10;99708.19;;;18.93;100.00
32131;BME280;18639;50.716;7.086;2023-10-13T09:06:50;99712.34;;;19.19;100.00
32131;BME280;18639;50.716;7.086;2023-10-13T09:09:32;99702.84;;;19.26;100.00
32131;BME280;18639;50.716;7.086;2023-10-13T09:12:10;99700.31;;;19.49;100.00
32131;BME280;18639;50.716;7.086;2023-10-13T09:14:43;99692.41;;;19.57;100.00
32131;BME280;18639;50.716;7.086;2023-10-13T09:17:22;99696.44;;;19.67;100.00
32131;BME280;18639;50.716;7.086;2023-10-13T09:20:07;99695.50;;;19.60;100.00
32131;BME280;18639;50.716;7.086;2023-10-13T09:22:55;99716.78;;;19.65;100.00
32131;BME280;18639;50.716;7.086;2023-10-13T09:25:36;99710.81;;;19.71;100.00
32131;BME280;18639;50.716;7.086;2023-10-13T09:28:13;99704.69;;;19.87;100.00
32131;BME280;18639;50.716;7.086;2023-10-13T09:30:53;99686.13;;;19.89;100.00
32131;BME280;18639;50.716;7.086;2023-10-13T09:33:23;99674.41;;;19.99;100.00
32131;BME280;18639;50.716;7.086;2023-10-13T09:36:15;99673.06;;;20.03;100.00
32131;BME280;18639;50.716;7.086;2023-10-13T09:38:45;99668.13;;;20.08;100.00
32131;BME280;18639;50.716;7.086;2023-10-13T09:41:14;99660.44;;;20.07;100.00
32131;BME280;18639;50.716;7.086;2023-10-13T09:43:52;99671.50;;;20.17;100.00
32131;BME280;18639;50.716;7.086;2023-10-13T09:46:21;99661.00;;;20.17;100.00
32131;BME280;18639;50.716;7.086;2023-10-13T09:48:54;99670.06;;;20.29;100.00
32131;BME280;18639;50.716;7.086;2023-10-13T09:51:33;99659.78;;;20.42;100.00
32131;BME280;18639;50.716;7.086;2023-10-13T09:54:13;99658.16;;;20.41;100.00
32131;BME280;18639;50.716;7.086;2023-10-13T09:56:50;99653.13;;;20.40;100.00
32131;BME280;18639;50.716;7.086;2023-10-13T10:02:18;99652.91;;;20.41;100.00
32131;BME280;18639;50.716;7.086;2023-10-13T10:04:52;99663.63;;;20.54;100.00
32131;BME280;18639;50.716;7.086;2023-10-13T10:07:25;99671.41;;;20.63;100.00
32131;BME280;18639;50.716;7.086;2023-10-13T10:10:01;99657.81;;;20.74;100.00
32131;BME280;18639;50.716;7.086;2023-10-13T10:15:07;99661.81;;;20.70;100.00
32131;BME280;18639;50.716;7.086;2023-10-13T10:17:41;99653.50;;;20.81;100.00
32131;BME280;18639;50.716;7.086;2023-10-13T10:20:07;99646.59;;;20.80;100.00
32131;BME280;18639;50.716;7.086;2023-10-13T10:22:39;99658.63;;;20.89;100.00
32131;BME280;18639;50.716;7.086;2023-10-13T10:25:09;99658.72;;;20.95;100.00
32131;BME280;18639;50.716;7.086;2023-10-13T10:28:01;99659.47;;;21.04;100.00
32131;BME280;18639;50.716;7.086;2023-10-13T10:30:31;99649.13;;;21.02;100.00
32131;BME280;18639;50.716;7.086;2023-10-13T10:32:59;99651.38;;;21.06;100.00
32131;BME280;18639;50.716;7.086;2023-10-13T10:35:25;99645.69;;;21.02;100.00
32131;BME280;18639;50.716;7.086;2023-10-13T10:38:17;99656.53;;;21.14;100.00
32131;BME280;18639;50.716;7.086;2023-10-13T10:40:54;99646.75;;;21.22;100.00
32131;BME280;18639;50.716;7.086;2023-10-13T10:43:42;99659.63;;;21.17;100.00
32131;BME280;18639;50.716;7.086;2023-10-13T10:46:16;99629.56;;;21.20;100.00
32131;BME280;18639;50.716;7.086;2023-10-13T10:48:42;99634.25;;;21.24;100.00
32131;BME280;18639;50.716;7.086;2023-10-13T10:51:11;99627.88;;;21.33;100.00
32131;BME280;18639;50.716;7.086;2023-10-13T10:53:43;99630.78;;;21.38;100.00
32131;BME280;18639;50.716;7.086;2023-10-13T10:56:13;99630.09;;;21.51;100.00
32131;BME280;18639;50.716;7.086;2023-10-13T10:58:56;99622.09;;;21.59;100.00
32131;BME280;18639;50.716;7.086;2023-10-13T11:01:24;99623.72;;;21.60;100.00
32131;BME280;18639;50.716;7.086;2023-10-13T11:04:01;99609.56;;;21.61;100.00
32131;BME280;18639;50.716;7.086;2023-10-13T11:06:45;99615.75;;;21.75;100.00
32131;BME280;18639;50.716;7.086;2023-10-13T11:09:11;99603.88;;;21.79;100.00
32131;BME280;18639;50.716;7.086;2023-10-13T11:11:56;99618.09;;;21.84;100.00
32131;BME280;18639;50.716;7.086;2023-10-13T11:14:29;99584.94;;;21.90;100.00
32131;BME280;18639;50.716;7.086;2023-10-13T11:16:56;99592.44;;;21.93;100.00
32131;BME280;18639;50.716;7.086;2023-10-13T11:19:38;99597.34;;;21.96;100.00
32131;BME280;18639;50.716;7.086;2023-10-13T11:22:13;99589.56;;;21.88;100.00
32131;BME280;18639;50.716;7.086;2023-10-13T11:25:01;99600.09;;;21.88;100.00
32131;BME280;18639;50.716;7.086;2023-10-13T11:27:34;99587.94;;;21.87;100.00
32131;BME280;18639;50.716;7.086;2023-10-13T11:30:11;99577.16;;;21.82;100.00
32131;BME280;18639;50.716;7.086;2023-10-13T11:32:41;99574.41;;;21.90;100.00
32131;BME280;18639;50.716;7.086;2023-10-13T11:35:08;99580.69;;;21.89;100.00
32131;BME280;18639;50.716;7.086;2023-10-13T11:37:49;99579.47;;;21.92;100.00
32131;BME280;18639;50.716;7.086;2023-10-13T11:40:21;99578.00;;;21.82;100.00
32131;BME280;18639;50.716;7.086;2023-10-13T11:43:07;99591.16;;;21.82;100.00
32131;BME280;18639;50.716;7.086;2023-10-13T11:45:38;99569.19;;;21.69;100.00
32131;BME280;18639;50.716;7.086;2023-10-13T11:48:17;99589.69;;;21.80;100.00
32131;BME280;18639;50.716;7.086;2023-10-13T11:50:48;99583.66;;;21.79;100.00
32131;BME280;18639;50.716;7.086;2023-10-13T11:53:14;99576.75;;;22.00;100.00
32131;BME280;18639;50.716;7.086;2023-10-13T11:55:39;99562.53;;;21.94;100.00
32131;BME280;18639;50.716;7.086;2023-10-13T11:58:04;99546.03;;;21.85;100.00
32131;BME280;18639;50.716;7.086;2023-10-13T12:00:31;99577.47;;;21.94;100.00
32131;BME280;18639;50.716;7.086;2023-10-13T12:03:15;99564.91;;;21.89;100.00
32131;BME280;18639;50.716;7.086;2023-10-13T12:05:58;99568.88;;;21.85;100.00
32131;BME280;18639;50.716;7.086;2023-10-13T12:08:44;99551.88;;;21.81;100.00
32131;BME280;18639;50.716;7.086;2023-10-13T12:11:15;99566.72;;;21.89;100.00
32131;BME280;18639;50.716;7.086;2023-10-13T12:13:56;99567.59;;;21.96;100.00
32131;BME280;18639;50.716;7.086;2023-10-13T12:16:21;99558.69;;;21.97;100.00
32131;BME280;18639;50.716;7.086;2023-10-13T12:18:47;99556.34;;;22.08;100.00
32131;BME280;18639;50.716;7.086;2023-10-13T12:21:21;99549.25;;;22.09;100.00
32131;BME280;18639;50.716;7.086;2023-10-13T12:23:47;99549.38;;;22.29;98.71
32131;BME280;18639;50.716;7.086;2023-10-13T12:26:12;99549.19;;;22.30;100.00
32131;BME280;18639;50.716;7.086;2023-10-13T12:28:58;99550.25;;;22.36;99.17
32131;BME280;18639;50.716;7.086;2023-10-13T12:31:31;99539.72;;;22.36;100.00
32131;BME280;18639;50.716;7.086;2023-10-13T12:33:57;99552.25;;;22.34;100.00
32131;BME280;18639;50.716;7.086;2023-10-13T12:36:32;99527.84;;;22.18;100.00
32131;BME280;18639;50.716;7.086;2023-10-13T12:39:06;99538.63;;;22.23;100.00
32131;BME280;18639;50.716;7.086;2023-10-13T12:41:31;99542.25;;;22.16;100.00
32131;BME280;18639;50.716;7.086;2023-10-13T12:44:15;99539.44;;;21.96;100.00
32131;BME280;18639;50.716;7.086;2023-10-13T12:46:59;99544.16;;;22.01;100.00
32131;BME280;18639;50.716;7.086;2023-10-13T12:49:43;99547.59;;;22.01;99.81
32131;BME280;18639;50.716;7.086;2023-10-13T12:52:17;99539.69;;;22.01;100.00
32131;BME280;18639;50.716;7.086;2023-10-13T12:54:46;99535.47;;;22.00;100.00
32131;BME280;18639;50.716;7.086;2023-10-13T12:57:15;99537.06;;;22.01;100.00
32131;BME280;18639;50.716;7.086;2023-10-13T12:59:41;99549.50;;;22.14;100.00
32131;BME280;18639;50.716;7.086;2023-10-13T13:02:06;99534.00;;;22.25;96.16
32131;BME280;18639;50.716;7.086;2023-10-13T13:04:33;99548.16;;;22.24;97.31
32131;BME280;18639;50.716;7.086;2023-10-13T13:07:02;99555.09;;;22.32;95.12
32131;BME280;18639;50.716;7.086;2023-10-13T13:09:31;99541.47;;;22.22;96.11
32131;BME280;18639;50.716;7.086;2023-10-13T13:11:56;99523.13;;;22.07;96.46
32131;BME280;18639;50.716;7.086;2023-10-13T13:14:23;99530.72;;;22.17;96.62
32131;BME280;18639;50.716;7.086;2023-10-13T13:16:57;99502.25;;;21.99;97.15
32131;BME280;18639;50.716;7.086;2023-10-13T13:19:36;99512.81;;;22.06;97.65
32131;BME280;18639;50.716;7.086;2023-10-13T13:22:07;99514.41;;;22.07;97.39
32131;BME280;18639;50.716;7.086;2023-10-13T13:24:40;99516.06;;;22.08;96.00
32131;BME280;18639;50.716;7.086;2023-10-13T13:27:13;99511.19;;;22.05;96.87
32131;BME280;18639;50.716;7.086;2023-10-13T13:29:43;99509.56;;;22.04;96.05
32131;BME280;18639;50.716;7.086;2023-10-13T13:32:09;99509.13;;;22.00;97.09